Time;durP1;ratioP1;P1;durP2;ratioP2;P2;SDS_P1;SDS_P2;PMS_P1;PMS_P2;Temp;Humidity;BMP_temperature;BMP_pressure;BME280_temperature;BME280_humidity;BME280_pressure;Samples;Min_cycle;Max_cycle;Signal;HPM_P1;HPM_P2
2022/11/09 00:02:01;;;;;;;;;0.75;0.75;;;;;;;;5102752;27;61785;-79
2022/11/09 00:04:26;;;;;;;;;2.00;2.00;;;;;;;;5101720;27;61925;-78
2022/11/09 00:06:52;;;;;;;;;3.50;1.00;;;;;;;;5084079;27;62168;-78
2022/11/09 00:09:17;;;;;;;;;5.00;2.00;;;;;;;;5083987;27;61929;-79
2022/11/09 00:11:42;;;;;;;;;0.75;0.75;;;;;;;;5102770;27;61729;-79
2022/11/09 00:14:12;;;;;;;;;1.00;1.00;;;;;;;;5083498;27;61902;-78
2022/11/09 00:16:38;;;;;;;;;1.00;1.00;;;;;;;;5084144;27;62154;-79
2022/11/09 00:19:03;;;;;;;;;1.25;1.25;;;;;;;;5083147;27;61827;-78
2022/11/09 00:21:29;;;;;;;;;3.25;2.00;;;;;;;;5084532;27;61907;-78
2022/11/09 00:23:54;;;;;;;;;2.50;0.00;;;;;;;;5102125;27;62414;-78
2022/11/09 00:26:20;;;;;;;;;1.00;1.00;;;;;;;;5102333;27;61872;-79
2022/11/09 00:28:45;;;;;;;;;1.00;1.00;;;;;;;;5084140;27;61796;-79
2022/11/09 00:31:12;;;;;;;;;1.00;1.00;;;;;;;;5083730;27;61760;-79
2022/11/09 00:33:37;;;;;;;;;2.75;2.00;;;;;;;;5101586;27;61918;-79
2022/11/09 00:36:06;;;;;;;;;5.25;1.00;;;;;;;;5102108;27;61803;-79
2022/11/09 00:38:31;;;;;;;;;1.50;1.25;;;;;;;;5104556;27;61905;-79
2022/11/09 00:40:59;;;;;;;;;4.25;0.00;;;;;;;;5105592;27;62010;-79
2022/11/09 00:43:24;;;;;;;;;4.25;1.00;;;;;;;;5087092;27;63639;-79
2022/11/09 00:45:49;;;;;;;;;1.50;1.50;;;;;;;;5087259;27;61986;-79
2022/11/09 00:48:14;;;;;;;;;4.00;1.75;;;;;;;;5105572;27;61807;-79
2022/11/09 00:50:40;;;;;;;;;2.00;1.50;;;;;;;;5105493;27;62266;-79
2022/11/09 00:53:05;;;;;;;;;3.00;1.00;;;;;;;;5086683;27;63739;-79
2022/11/09 00:55:30;;;;;;;;;2.00;2.00;;;;;;;;5105359;27;61911;-79
2022/11/09 00:57:55;;;;;;;;;2.50;1.00;;;;;;;;5087247;27;62233;-79
2022/11/09 01:00:22;;;;;;;;;0.75;0.50;;;;;;;;5087272;27;62086;-79
2022/11/09 01:02:49;;;;;;;;;2.50;1.00;;;;;;;;5086423;27;63093;-79
2022/11/09 01:05:14;;;;;;;;;1.75;1.75;;;;;;;;5105190;27;61784;-79
2022/11/09 01:07:39;;;;;;;;;1.00;1.00;;;;;;;;5087062;27;61763;-79
2022/11/09 01:10:05;;;;;;;;;1.00;0.00;;;;;;;;5105295;27;61832;-78
2022/11/09 01:12:31;;;;;;;;;2.00;0.00;;;;;;;;5086513;27;63967;-79
2022/11/09 01:14:56;;;;;;;;;2.25;1.25;;;;;;;;5086741;27;61867;-79
2022/11/09 01:17:21;;;;;;;;;2.50;1.00;;;;;;;;5104954;27;62058;-79
2022/11/09 01:19:47;;;;;;;;;3.00;1.25;;;;;;;;5105130;27;61716;-79
2022/11/09 01:22:12;;;;;;;;;1.00;1.00;;;;;;;;5085860;27;63348;-79
2022/11/09 01:24:38;;;;;;;;;5.00;1.50;;;;;;;;5105045;27;61634;-78
2022/11/09 01:27:03;;;;;;;;;4.00;1.75;;;;;;;;5105098;27;61981;-79
2022/11/09 01:29:28;;;;;;;;;2.25;0.25;;;;;;;;5086745;27;62138;-79
2022/11/09 01:31:54;;;;;;;;;2.25;1.00;;;;;;;;5104053;27;62694;-79
2022/11/09 01:34:19;;;;;;;;;2.00;1.00;;;;;;;;5105073;27;61807;-79
2022/11/09 01:36:45;;;;;;;;;1.00;1.00;;;;;;;;5086438;27;61823;-79
2022/11/09 01:39:10;;;;;;;;;0.00;0.00;;;;;;;;5104932;27;61748;-78
2022/11/09 01:41:35;;;;;;;;;1.75;1.00;;;;;;;;5104064;27;62818;-78
2022/11/09 01:44:10;;;;;;;;;5.50;2.00;;;;;;;;5086476;27;61732;-79
2022/11/09 01:46:35;;;;;;;;;3.25;0.75;;;;;;;;5104556;27;61754;-78
2022/11/09 01:49:02;;;;;;;;;1.75;0.75;;;;;;;;5104078;27;61956;-79
2022/11/09 01:51:39;;;;;;;;;1.50;1.50;;;;;;;;5085502;27;61803;-79
2022/11/09 01:54:10;;;;;;;;;2.00;1.00;;;;;;;;5104449;27;61853;-79
2022/11/09 01:56:36;;;;;;;;;0.75;0.75;;;;;;;;5099393;27;61830;-79
2022/11/09 01:59:04;;;;;;;;;1.50;0.00;;;;;;;;5084108;27;61774;-78
2022/11/09 02:01:30;;;;;;;;;0.75;0.75;;;;;;;;5064871;28;63500;-78
2022/11/09 02:03:58;;;;;;;;;0.75;0.00;;;;;;;;5065820;27;62022;-78
2022/11/09 02:06:25;;;;;;;;;0.00;0.00;;;;;;;;5065731;28;61757;-79
2022/11/09 02:08:53;;;;;;;;;1.25;0.00;;;;;;;;5066036;28;62165;-79
2022/11/09 02:11:20;;;;;;;;;0.75;0.00;;;;;;;;5064365;27;62842;-79
2022/11/09 02:13:48;;;;;;;;;2.00;0.00;;;;;;;;5083925;28;61776;-79
2022/11/09 02:16:13;;;;;;;;;0.00;0.00;;;;;;;;5083148;27;61878;-78
2022/11/09 02:18:46;;;;;;;;;3.00;0.00;;;;;;;;5083846;28;61818;-78
2022/11/09 02:21:11;;;;;;;;;0.00;0.00;;;;;;;;5083294;27;61928;-78
2022/11/09 02:23:37;;;;;;;;;1.00;1.00;;;;;;;;5065587;28;61815;-78
2022/11/09 02:26:08;;;;;;;;;1.25;0.25;;;;;;;;5083705;28;61968;-78
2022/11/09 02:28:34;;;;;;;;;0.00;0.00;;;;;;;;5065482;28;62026;-79
2022/11/09 02:31:00;;;;;;;;;1.00;1.00;;;;;;;;5064512;28;63169;-79
2022/11/09 02:33:25;;;;;;;;;0.00;0.00;;;;;;;;5083631;28;61868;-79
2022/11/09 02:35:50;;;;;;;;;1.00;0.00;;;;;;;;5083558;28;61814;-79
2022/11/09 02:38:16;;;;;;;;;0.00;0.00;;;;;;;;5065512;28;61716;-78
2022/11/09 02:40:51;;;;;;;;;0.00;0.00;;;;;;;;5082704;27;61982;-78
2022/11/09 02:43:17;;;;;;;;;0.00;0.00;;;;;;;;5065236;28;62012;-79
2022/11/09 02:45:42;;;;;;;;;0.25;0.00;;;;;;;;5083165;27;61926;-79
2022/11/09 02:48:07;;;;;;;;;1.50;0.00;;;;;;;;5083971;27;61728;-79
2022/11/09 02:50:32;;;;;;;;;2.00;0.50;;;;;;;;5063706;28;63285;-79
2022/11/09 02:52:58;;;;;;;;;1.50;0.00;;;;;;;;5083247;27;61823;-78
2022/11/09 02:55:23;;;;;;;;;0.00;0.00;;;;;;;;5092887;27;62019;-78
2022/11/09 02:57:48;;;;;;;;;0.00;0.00;;;;;;;;5103981;27;61878;-78
2022/11/09 03:00:14;;;;;;;;;2.50;0.00;;;;;;;;5102558;27;61887;-78
2022/11/09 03:02:39;;;;;;;;;0.00;0.00;;;;;;;;5102426;27;61920;-79
2022/11/09 03:05:04;;;;;;;;;0.00;0.00;;;;;;;;5085237;27;61800;-79
2022/11/09 03:07:31;;;;;;;;;0.25;0.25;;;;;;;;5103698;27;61981;-78
2022/11/09 03:09:56;;;;;;;;;0.00;0.00;;;;;;;;5102854;27;61887;-78
2022/11/09 03:12:27;;;;;;;;;2.75;1.00;;;;;;;;5084554;27;61793;-78
2022/11/09 03:14:53;;;;;;;;;1.25;0.75;;;;;;;;5084727;27;61906;-78
2022/11/09 03:17:18;;;;;;;;;0.00;0.00;;;;;;;;5103447;27;61740;-79
2022/11/09 03:19:44;;;;;;;;;1.00;1.00;;;;;;;;5102501;27;61924;-79
2022/11/09 03:22:09;;;;;;;;;0.00;0.00;;;;;;;;5085086;27;61809;-78
2022/11/09 03:24:34;;;;;;;;;1.00;0.00;;;;;;;;5102841;27;61764;-78
2022/11/09 03:27:00;;;;;;;;;0.00;0.00;;;;;;;;5085078;27;61997;-78
2022/11/09 03:29:25;;;;;;;;;0.00;0.00;;;;;;;;5102194;27;62763;-78
2022/11/09 03:31:50;;;;;;;;;0.00;0.00;;;;;;;;5084728;27;61879;-79
2022/11/09 03:34:15;;;;;;;;;0.00;0.00;;;;;;;;5084929;27;61785;-79
2022/11/09 03:36:41;;;;;;;;;0.00;0.00;;;;;;;;5103089;27;61914;-78
2022/11/09 03:39:06;;;;;;;;;0.00;0.00;;;;;;;;5084220;27;63517;-79
2022/11/09 03:41:31;;;;;;;;;0.00;0.00;;;;;;;;5102660;27;61827;-78
2022/11/09 03:43:56;;;;;;;;;1.00;1.00;;;;;;;;5084590;27;61942;-79
2022/11/09 03:46:22;;;;;;;;;0.25;0.00;;;;;;;;5084521;27;61784;-79
2022/11/09 03:48:47;;;;;;;;;0.00;0.00;;;;;;;;5101949;27;61705;-78
2022/11/09 03:51:12;;;;;;;;;0.75;0.00;;;;;;;;5084590;27;62178;-79
2022/11/09 03:53:38;;;;;;;;;0.00;0.00;;;;;;;;5084528;27;61972;-79
2022/11/09 03:56:03;;;;;;;;;1.00;0.00;;;;;;;;5083903;27;62048;-79
2022/11/09 03:58:28;;;;;;;;;0.00;0.00;;;;;;;;5083116;27;63135;-78
2022/11/09 04:00:53;;;;;;;;;0.25;0.00;;;;;;;;5084325;27;61834;-78
2022/11/09 04:03:19;;;;;;;;;1.25;0.00;;;;;;;;5084439;27;61880;-79
2022/11/09 04:05:44;;;;;;;;;1.00;0.00;;;;;;;;5084393;27;62154;-78
2022/11/09 04:08:09;;;;;;;;;0.75;0.00;;;;;;;;5083784;27;61930;-78
2022/11/09 04:10:34;;;;;;;;;0.25;0.00;;;;;;;;5083557;27;61786;-78
2022/11/09 04:13:00;;;;;;;;;0.00;0.00;;;;;;;;5086839;27;62056;-78
2022/11/09 04:15:25;;;;;;;;;0.00;0.00;;;;;;;;5091315;27;61898;-79
2022/11/09 04:17:54;;;;;;;;;2.50;0.00;;;;;;;;5090115;27;61937;-79
2022/11/09 04:20:19;;;;;;;;;0.25;0.00;;;;;;;;5109151;27;61916;-78
2022/11/09 04:22:52;;;;;;;;;0.00;0.00;;;;;;;;5090739;27;61898;-78
2022/11/09 04:25:17;;;;;;;;;0.00;0.00;;;;;;;;5109339;27;61847;-78
2022/11/09 04:27:42;;;;;;;;;0.00;0.00;;;;;;;;5089985;27;62401;-79
2022/11/09 04:30:08;;;;;;;;;0.25;0.00;;;;;;;;5090813;27;61784;-78
2022/11/09 04:32:33;;;;;;;;;0.00;0.00;;;;;;;;5109098;27;61708;-79
2022/11/09 04:34:59;;;;;;;;;0.00;0.00;;;;;;;;5109583;27;61713;-79
2022/11/09 04:37:24;;;;;;;;;1.00;0.00;;;;;;;;5108750;27;61630;-79
2022/11/09 04:39:50;;;;;;;;;1.00;0.00;;;;;;;;5089878;27;61992;-78
2022/11/09 04:42:15;;;;;;;;;0.75;0.00;;;;;;;;5090357;27;62026;-79
2022/11/09 04:44:40;;;;;;;;;1.50;0.50;;;;;;;;5090611;27;61870;-79
2022/11/09 04:47:05;;;;;;;;;0.00;0.00;;;;;;;;5089970;27;63325;-79
2022/11/09 04:49:31;;;;;;;;;0.00;0.00;;;;;;;;5089380;27;61902;-79
2022/11/09 04:51:56;;;;;;;;;0.50;0.00;;;;;;;;5109017;27;61902;-79
2022/11/09 04:54:21;;;;;;;;;1.00;0.00;;;;;;;;5090361;27;61938;-78
2022/11/09 04:56:47;;;;;;;;;0.00;0.00;;;;;;;;5107806;27;62008;-78
2022/11/09 04:59:12;;;;;;;;;0.50;0.00;;;;;;;;5090454;27;61828;-79
2022/11/09 05:01:37;;;;;;;;;0.50;0.00;;;;;;;;5108434;27;61681;-78
2022/11/09 05:04:02;;;;;;;;;0.00;0.00;;;;;;;;5109279;27;61691;-78
2022/11/09 05:06:31;;;;;;;;;0.00;0.00;;;;;;;;5089852;27;61889;-78
2022/11/09 05:08:56;;;;;;;;;0.00;0.00;;;;;;;;5089876;27;61840;-78
2022/11/09 05:11:22;;;;;;;;;2.25;0.00;;;;;;;;5089830;27;61828;-78
2022/11/09 05:13:47;;;;;;;;;4.00;0.00;;;;;;;;5108578;27;61719;-79
2022/11/09 05:16:12;;;;;;;;;0.75;0.00;;;;;;;;5108034;27;61806;-79
2022/11/09 05:18:38;;;;;;;;;0.00;0.00;;;;;;;;5108206;27;61913;-78
2022/11/09 05:21:03;;;;;;;;;0.00;0.00;;;;;;;;5108236;27;62195;-78
2022/11/09 05:26:12;;;;;;;;;0.00;0.00;;;;;;;;5103458;27;62202;-78
2022/11/09 05:28:38;;;;;;;;;0.50;0.50;;;;;;;;5086693;27;61838;-78
2022/11/09 05:31:03;;;;;;;;;1.75;0.00;;;;;;;;5105175;27;62151;-78
2022/11/09 05:33:29;;;;;;;;;3.00;0.00;;;;;;;;5086949;27;61780;-79
2022/11/09 05:35:54;;;;;;;;;0.75;0.00;;;;;;;;5104106;27;62568;-78
2022/11/09 05:38:20;;;;;;;;;0.00;0.00;;;;;;;;5085960;27;61720;-78
2022/11/09 05:40:49;;;;;;;;;0.25;0.00;;;;;;;;5104582;27;61870;-79
2022/11/09 05:43:14;;;;;;;;;1.00;0.00;;;;;;;;5105321;27;61686;-78
2022/11/09 05:45:40;;;;;;;;;2.25;0.00;;;;;;;;5085876;27;61871;-79
2022/11/09 05:48:05;;;;;;;;;1.25;0.50;;;;;;;;5104941;27;62012;-79
2022/11/09 05:50:31;;;;;;;;;0.00;0.00;;;;;;;;5104354;27;62041;-79
2022/11/09 05:53:00;;;;;;;;;0.00;0.00;;;;;;;;5086022;27;61862;-78
2022/11/09 05:55:25;;;;;;;;;0.00;0.00;;;;;;;;5085023;27;62766;-78
2022/11/09 05:57:50;;;;;;;;;0.00;0.00;;;;;;;;5085803;27;61872;-78
2022/11/09 06:00:16;;;;;;;;;0.00;0.00;;;;;;;;5086226;27;62002;-78
2022/11/09 06:02:41;;;;;;;;;0.00;0.00;;;;;;;;5104562;27;62151;-79
2022/11/09 06:05:06;;;;;;;;;0.00;0.00;;;;;;;;5104154;27;62050;-79
2022/11/09 06:07:32;;;;;;;;;1.00;0.00;;;;;;;;5104261;27;61927;-77
2022/11/09 06:09:57;;;;;;;;;2.00;1.00;;;;;;;;5103946;27;61721;-76
2022/11/09 06:12:22;;;;;;;;;0.75;0.00;;;;;;;;5105245;27;61885;-76
2022/11/09 06:14:48;;;;;;;;;1.75;0.00;;;;;;;;5085397;27;61861;-75
2022/11/09 06:17:13;;;;;;;;;0.00;0.00;;;;;;;;5104293;27;61893;-76
2022/11/09 06:19:38;;;;;;;;;1.25;0.25;;;;;;;;5104024;27;61734;-77
2022/11/09 06:22:04;;;;;;;;;1.00;1.00;;;;;;;;5084784;27;61869;-78
2022/11/09 06:24:33;;;;;;;;;1.00;0.00;;;;;;;;5103506;27;62763;-78
2022/11/09 06:27:03;;;;;;;;;1.00;1.00;;;;;;;;5084949;27;62120;-79
2022/11/09 06:29:28;;;;;;;;;1.25;0.25;;;;;;;;5103718;27;61754;-77
2022/11/09 06:31:53;;;;;;;;;0.50;0.50;;;;;;;;5084482;27;61895;-77
2022/11/09 06:34:19;;;;;;;;;0.00;0.00;;;;;;;;5101811;27;63229;-77
2022/11/09 06:36:44;;;;;;;;;1.50;0.00;;;;;;;;5102472;27;61802;-78
2022/11/09 06:39:09;;;;;;;;;0.00;0.00;;;;;;;;5102587;27;61743;-78
2022/11/09 06:41:35;;;;;;;;;3.00;0.00;;;;;;;;5103228;27;62029;-78
2022/11/09 06:44:00;;;;;;;;;1.00;0.25;;;;;;;;5083945;27;62819;-76
2022/11/09 06:46:26;;;;;;;;;1.75;0.50;;;;;;;;5084630;27;62059;-77
2022/11/09 06:48:51;;;;;;;;;0.00;0.00;;;;;;;;5102525;27;61994;-75
2022/11/09 06:51:16;;;;;;;;;1.00;1.00;;;;;;;;5102607;27;62010;-76
2022/11/09 06:53:42;;;;;;;;;0.00;0.00;;;;;;;;5102213;27;61850;-76
2022/11/09 06:56:08;;;;;;;;;0.00;0.00;;;;;;;;5083853;27;61847;-76
2022/11/09 06:58:33;;;;;;;;;1.75;0.00;;;;;;;;5103205;27;61956;-76
2022/11/09 07:00:59;;;;;;;;;0.75;0.75;;;;;;;;5085077;27;61706;-77
2022/11/09 07:03:24;;;;;;;;;2.25;1.50;;;;;;;;5084488;27;61807;-76
2022/11/09 07:05:51;;;;;;;;;1.00;1.00;;;;;;;;5100628;27;62252;-76
2022/11/09 07:08:16;;;;;;;;;1.75;1.00;;;;;;;;5082683;27;61960;-77
2022/11/09 07:10:42;;;;;;;;;1.00;1.00;;;;;;;;5099001;27;62090;-76
2022/11/09 07:13:07;;;;;;;;;2.00;1.00;;;;;;;;5090790;27;62774;-81
2022/11/09 07:15:33;;;;;;;;;2.50;0.50;;;;;;;;5092278;27;61794;-80
2022/11/09 07:17:59;;;;;;;;;1.00;0.00;;;;;;;;5102285;27;62096;-78
2022/11/09 07:20:25;;;;;;;;;0.25;0.25;;;;;;;;5102385;27;61693;-79
2022/11/09 07:22:51;;;;;;;;;1.50;0.50;;;;;;;;5100521;27;61941;-78
2022/11/09 07:25:16;;;;;;;;;0.00;0.00;;;;;;;;5102229;27;62091;-78
2022/11/09 07:27:42;;;;;;;;;1.75;0.25;;;;;;;;5098924;27;61850;-78
2022/11/09 07:30:07;;;;;;;;;2.00;0.00;;;;;;;;5099236;27;61900;-78
2022/11/09 07:32:33;;;;;;;;;2.25;2.25;;;;;;;;5110679;27;62246;-78
2022/11/09 07:34:58;;;;;;;;;1.00;1.00;;;;;;;;5093888;27;62946;-78
2022/11/09 07:37:24;;;;;;;;;2.00;0.75;;;;;;;;5112524;27;62873;-78
2022/11/09 07:39:49;;;;;;;;;4.00;1.00;;;;;;;;5091201;27;61930;-78
2022/11/09 07:42:14;;;;;;;;;4.00;2.00;;;;;;;;5082440;27;61874;-77
2022/11/09 07:44:40;;;;;;;;;3.25;1.00;;;;;;;;5084285;27;61928;-76
2022/11/09 07:47:05;;;;;;;;;3.50;1.50;;;;;;;;5102315;27;62182;-78
2022/11/09 07:49:31;;;;;;;;;4.00;1.00;;;;;;;;5102337;27;61714;-77
2022/11/09 07:51:56;;;;;;;;;3.25;1.00;;;;;;;;5083679;27;63662;-77
2022/11/09 07:54:21;;;;;;;;;3.75;1.00;;;;;;;;5101792;27;61939;-77
2022/11/09 07:56:46;;;;;;;;;4.00;0.75;;;;;;;;5083515;27;62205;-77
2022/11/09 07:59:12;;;;;;;;;0.25;0.25;;;;;;;;5083933;27;61825;-77
2022/11/09 08:01:37;;;;;;;;;2.00;1.00;;;;;;;;5102189;27;61831;-77
2022/11/09 08:04:03;;;;;;;;;2.75;1.25;;;;;;;;5084171;27;61998;-77
2022/11/09 08:06:28;;;;;;;;;3.00;1.75;;;;;;;;5084205;27;61746;-77
2022/11/09 08:08:54;;;;;;;;;0.50;0.50;;;;;;;;5102737;27;62292;-77
2022/11/09 08:11:19;;;;;;;;;0.75;0.75;;;;;;;;5092906;27;62009;-77
2022/11/09 08:13:44;;;;;;;;;0.00;0.00;;;;;;;;5063948;28;61819;-77
2022/11/09 08:16:10;;;;;;;;;2.00;1.00;;;;;;;;5082057;28;61693;-77
2022/11/09 08:18:35;;;;;;;;;1.50;1.50;;;;;;;;5082839;27;61659;-77
2022/11/09 08:21:02;;;;;;;;;0.75;0.75;;;;;;;;5102147;27;62917;-77
2022/11/09 08:23:27;;;;;;;;;0.00;0.00;;;;;;;;5102495;27;61731;-77
2022/11/09 08:25:52;;;;;;;;;1.75;1.75;;;;;;;;5083760;27;62133;-77
2022/11/09 08:28:18;;;;;;;;;3.50;1.00;;;;;;;;5084271;27;61921;-77
2022/11/09 08:30:43;;;;;;;;;2.00;0.75;;;;;;;;5083229;27;61867;-77
2022/11/09 08:33:10;;;;;;;;;2.00;0.00;;;;;;;;5102049;27;61685;-78
2022/11/09 08:35:35;;;;;;;;;1.50;0.75;;;;;;;;5102704;27;61873;-77
2022/11/09 08:38:02;;;;;;;;;2.00;0.75;;;;;;;;5102011;27;62006;-78
2022/11/09 08:40:27;;;;;;;;;1.00;1.00;;;;;;;;5082863;27;64452;-77
2022/11/09 08:42:52;;;;;;;;;4.50;0.25;;;;;;;;5083799;27;61768;-77
2022/11/09 08:45:18;;;;;;;;;1.00;1.00;;;;;;;;5083516;27;61885;-77
2022/11/09 08:47:43;;;;;;;;;0.00;0.00;;;;;;;;5101923;27;61939;-77
2022/11/09 08:50:09;;;;;;;;;4.00;2.00;;;;;;;;5101051;27;62196;-77
2022/11/09 08:52:35;;;;;;;;;1.00;0.75;;;;;;;;5083361;27;62159;-77
2022/11/09 08:55:00;;;;;;;;;2.50;1.00;;;;;;;;5101801;27;61883;-77
2022/11/09 08:57:26;;;;;;;;;4.00;1.00;;;;;;;;5083449;27;62261;-77
2022/11/09 08:59:51;;;;;;;;;2.75;1.75;;;;;;;;5083997;27;61867;-77
2022/11/09 09:02:17;;;;;;;;;4.50;0.00;;;;;;;;5105042;27;61792;-77
2022/11/09 09:04:42;;;;;;;;;1.75;1.75;;;;;;;;5105668;27;61704;-77
2022/11/09 09:07:08;;;;;;;;;7.00;0.00;;;;;;;;5105735;27;61701;-77
2022/11/09 09:09:33;;;;;;;;;1.75;0.75;;;;;;;;5104823;27;62761;-77
2022/11/09 09:11:59;;;;;;;;;3.00;1.00;;;;;;;;5105163;27;61863;-77
2022/11/09 09:14:24;;;;;;;;;1.50;1.50;;;;;;;;5105383;27;61931;-77
2022/11/09 09:16:49;;;;;;;;;3.25;1.75;;;;;;;;5095434;27;62116;-77
2022/11/09 09:19:15;;;;;;;;;2.00;1.00;;;;;;;;5104149;27;62966;-77
2022/11/09 09:21:40;;;;;;;;;3.00;2.00;;;;;;;;5086771;27;62351;-77
2022/11/09 09:24:06;;;;;;;;;1.25;0.25;;;;;;;;5086768;27;61875;-77
2022/11/09 09:26:31;;;;;;;;;2.00;1.00;;;;;;;;5105131;27;62022;-77
2022/11/09 09:28:57;;;;;;;;;0.75;0.75;;;;;;;;5104988;27;62753;-77
2022/11/09 09:31:23;;;;;;;;;2.75;1.00;;;;;;;;5104639;27;61701;-77
2022/11/09 09:33:48;;;;;;;;;0.00;0.00;;;;;;;;5086717;27;61760;-76
2022/11/09 09:36:17;;;;;;;;;3.25;1.00;;;;;;;;5105388;27;61705;-77
2022/11/09 09:38:43;;;;;;;;;3.25;1.00;;;;;;;;5103307;27;61981;-77
2022/11/09 09:41:14;;;;;;;;;2.00;0.50;;;;;;;;5085841;27;61773;-77
2022/11/09 09:43:41;;;;;;;;;3.25;0.25;;;;;;;;5102308;27;61921;-77
2022/11/09 09:46:26;;;;;;;;;1.75;0.00;;;;;;;;5104549;27;62112;-77
2022/11/09 09:49:00;;;;;;;;;4.50;1.00;;;;;;;;5070498;27;61876;-77
2022/11/09 09:51:28;;;;;;;;;2.50;2.00;;;;;;;;5085778;27;62116;-77
2022/11/09 09:53:56;;;;;;;;;3.00;1.25;;;;;;;;5104859;27;61776;-77
2022/11/09 09:56:37;;;;;;;;;1.50;1.50;;;;;;;;5104747;27;61752;-77
2022/11/09 09:59:38;;;;;;;;;1.00;1.00;;;;;;;;5103659;27;61893;-77
2022/11/09 10:02:15;;;;;;;;;2.00;1.00;;;;;;;;5012562;28;62021;-77
2022/11/09 10:04:41;;;;;;;;;1.00;1.00;;;;;;;;4984635;28;61760;-76
2022/11/09 10:07:11;;;;;;;;;1.25;0.75;;;;;;;;5001577;28;61883;-77
2022/11/09 10:09:46;;;;;;;;;1.00;1.00;;;;;;;;4984206;28;64739;-77
2022/11/09 10:12:23;;;;;;;;;1.50;0.25;;;;;;;;4983785;28;62430;-78
2022/11/09 10:14:54;;;;;;;;;2.75;1.00;;;;;;;;4983990;28;62112;-76
2022/11/09 10:17:31;;;;;;;;;1.75;1.75;;;;;;;;4984796;28;61850;-77
2022/11/09 10:20:15;;;;;;;;;5.50;2.00;;;;;;;;4983625;28;63544;-76
2022/11/09 10:22:43;;;;;;;;;1.25;1.00;;;;;;;;5006992;28;62008;-77
2022/11/09 10:25:11;;;;;;;;;4.75;1.00;;;;;;;;5003768;28;61920;-77
2022/11/09 10:27:39;;;;;;;;;0.00;0.00;;;;;;;;5021245;28;62074;-77
2022/11/09 10:30:14;;;;;;;;;1.00;1.00;;;;;;;;5019084;28;62179;-77
2022/11/09 10:32:40;;;;;;;;;1.00;1.00;;;;;;;;5019683;28;61892;-77
2022/11/09 10:35:14;;;;;;;;;1.00;1.00;;;;;;;;5012151;27;62252;-77
2022/11/09 10:37:45;;;;;;;;;2.00;0.00;;;;;;;;5103794;27;61735;-75
2022/11/09 10:40:25;;;;;;;;;1.25;1.00;;;;;;;;5110143;27;62116;-76
2022/11/09 10:42:55;;;;;;;;;1.00;1.00;;;;;;;;5102443;27;61910;-76
2022/11/09 10:45:20;;;;;;;;;1.25;1.00;;;;;;;;5078065;27;61903;-76
2022/11/09 10:47:50;;;;;;;;;1.25;1.25;;;;;;;;5082657;27;61955;-77
2022/11/09 10:50:25;;;;;;;;;0.75;0.75;;;;;;;;5102387;27;62072;-77
2022/11/09 10:52:50;;;;;;;;;2.75;1.00;;;;;;;;5102022;27;62700;-77
2022/11/09 10:55:21;;;;;;;;;1.00;1.00;;;;;;;;5103286;27;61886;-76
2022/11/09 10:57:52;;;;;;;;;4.00;1.75;;;;;;;;5083884;27;62108;-76
2022/11/09 11:00:19;;;;;;;;;0.25;0.25;;;;;;;;5083844;27;63876;-77
2022/11/09 11:02:45;;;;;;;;;1.50;1.00;;;;;;;;5083803;27;62192;-76
2022/11/09 11:05:17;;;;;;;;;1.50;0.00;;;;;;;;5102466;27;61920;-76
2022/11/09 11:07:43;;;;;;;;;4.25;2.25;;;;;;;;5102482;27;61882;-76
2022/11/09 11:10:14;;;;;;;;;0.50;0.50;;;;;;;;5102076;27;61822;-77
2022/11/09 11:12:40;;;;;;;;;2.00;0.00;;;;;;;;5084369;27;62004;-77
2022/11/09 11:15:22;;;;;;;;;3.00;1.00;;;;;;;;5103187;27;62044;-76
2022/11/09 11:17:48;;;;;;;;;4.25;1.50;;;;;;;;5084366;27;62085;-76
2022/11/09 11:20:32;;;;;;;;;0.25;0.25;;;;;;;;5083046;27;63449;-77
2022/11/09 11:23:10;;;;;;;;;1.00;0.00;;;;;;;;5101205;27;61973;-77
2022/11/09 11:25:39;;;;;;;;;1.75;1.00;;;;;;;;5103212;27;61736;-77
2022/11/09 11:28:14;;;;;;;;;2.00;0.50;;;;;;;;5084232;27;62237;-77
2022/11/09 11:30:39;;;;;;;;;0.00;0.00;;;;;;;;5102702;27;62005;-78
2022/11/09 11:33:11;;;;;;;;;2.50;1.00;;;;;;;;5102504;27;61957;-78
2022/11/09 11:35:48;;;;;;;;;1.50;1.00;;;;;;;;5102678;27;61850;-78
2022/11/09 11:38:13;;;;;;;;;2.75;1.00;;;;;;;;5102963;27;61723;-78
2022/11/09 11:40:45;;;;;;;;;5.25;1.00;;;;;;;;5082862;27;61916;-77
2022/11/09 11:43:10;;;;;;;;;1.00;0.50;;;;;;;;5084643;27;61951;-80
2022/11/09 11:45:40;;;;;;;;;3.00;1.00;;;;;;;;5084483;27;62064;-79
2022/11/09 11:48:20;;;;;;;;;2.75;0.50;;;;;;;;5084352;27;61938;-80
2022/11/09 11:50:50;;;;;;;;;1.50;1.00;;;;;;;;5081674;28;61993;-82
2022/11/09 11:53:15;;;;;;;;;1.25;1.25;;;;;;;;5063767;28;61899;-78
2022/11/09 11:55:55;;;;;;;;;2.50;1.00;;;;;;;;5093854;27;61891;-79
2022/11/09 11:58:38;;;;;;;;;2.50;0.75;;;;;;;;5102376;27;61875;-84
2022/11/09 12:01:22;;;;;;;;;5.00;1.25;;;;;;;;5060195;28;62181;-78
2022/11/09 12:03:50;;;;;;;;;2.25;0.25;;;;;;;;5061596;28;61883;-78
2022/11/09 12:06:25;;;;;;;;;4.75;1.00;;;;;;;;5060668;28;61758;-77
2022/11/09 12:09:11;;;;;;;;;2.00;1.00;;;;;;;;5061549;28;62194;-77
2022/11/09 12:11:43;;;;;;;;;3.50;0.00;;;;;;;;5057046;28;61821;-76
2022/11/09 12:14:08;;;;;;;;;0.00;0.00;;;;;;;;5061394;28;62269;-79
2022/11/09 12:16:43;;;;;;;;;2.00;1.00;;;;;;;;5048530;28;61971;-81
2022/11/09 12:19:18;;;;;;;;;1.00;1.00;;;;;;;;5050139;28;61804;-82
2022/11/09 12:21:46;;;;;;;;;2.50;1.00;;;;;;;;5060684;28;62838;-80
2022/11/09 12:24:14;;;;;;;;;2.67;0.33;;;;;;;;5058548;28;61753;-79
2022/11/09 12:27:08;;;;;;;;;0.00;0.00;;;;;;;;5062002;28;61922;-78
2022/11/09 12:29:33;;;;;;;;;2.00;2.00;;;;;;;;5061116;28;61861;-78
2022/11/09 12:32:19;;;;;;;;;0.33;0.00;;;;;;;;5059824;28;61866;-79
2022/11/09 12:34:55;;;;;;;;;0.00;0.00;;;;;;;;5060486;28;61954;-79
2022/11/09 12:37:34;;;;;;;;;0.00;0.00;;;;;;;;5061521;28;62283;-78
2022/11/09 12:40:20;;;;;;;;;1.00;0.00;;;;;;;;5061168;28;61885;-78
2022/11/09 12:42:48;;;;;;;;;0.00;0.00;;;;;;;;5062515;28;61876;-79
2022/11/09 12:45:26;;;;;;;;;0.67;0.00;;;;;;;;5060568;28;62133;-78
2022/11/09 12:47:53;;;;;;;;;0.50;0.50;;;;;;;;5061005;28;62071;-79
2022/11/09 12:50:22;;;;;;;;;1.67;0.33;;;;;;;;5063026;28;61967;-78
2022/11/09 12:52:48;;;;;;;;;0.00;0.00;;;;;;;;5060628;28;63574;-78
2022/11/09 12:55:15;;;;;;;;;0.33;0.33;;;;;;;;5060239;28;62039;-78
2022/11/09 12:57:43;;;;;;;;;0.00;0.00;;;;;;;;5062981;28;62192;-79
2022/11/09 13:00:29;;;;;;;;;1.00;1.00;;;;;;;;5103393;27;62113;-79
2022/11/09 13:02:55;;;;;;;;;1.00;0.00;;;;;;;;5085111;27;62313;-81
2022/11/09 13:05:29;;;;;;;;;0.00;0.00;;;;;;;;5084746;27;62261;-78
2022/11/09 13:08:01;;;;;;;;;3.00;0.67;;;;;;;;5087525;27;62136;-79
2022/11/09 13:10:28;;;;;;;;;0.00;0.00;;;;;;;;5082254;27;62843;-79
2022/11/09 13:13:01;;;;;;;;;0.33;0.00;;;;;;;;5081111;27;63429;-81
2022/11/09 13:15:28;;;;;;;;;1.33;0.00;;;;;;;;5084370;27;61889;-80
2022/11/09 13:18:02;;;;;;;;;1.00;1.00;;;;;;;;5082011;27;62356;-81
2022/11/09 13:20:33;;;;;;;;;1.00;0.00;;;;;;;;5081917;27;61914;-81
2022/11/09 13:23:01;;;;;;;;;0.00;0.00;;;;;;;;5081173;27;63095;-80
2022/11/09 13:25:45;;;;;;;;;0.00;0.00;;;;;;;;5080213;28;61875;-80
2022/11/09 13:28:26;;;;;;;;;0.00;0.00;;;;;;;;5079200;27;62049;-81
2022/11/09 13:30:52;;;;;;;;;2.67;0.00;;;;;;;;5081774;27;61971;-81
2022/11/09 13:33:28;;;;;;;;;0.00;0.00;;;;;;;;5080581;27;63310;-81
2022/11/09 13:35:54;;;;;;;;;0.67;0.00;;;;;;;;5081290;28;61893;-81
2022/11/09 13:38:21;;;;;;;;;0.00;0.00;;;;;;;;5081751;28;62403;-80
2022/11/09 13:40:47;;;;;;;;;0.00;0.00;;;;;;;;5080331;28;62139;-81
2022/11/09 13:43:20;;;;;;;;;1.00;0.00;;;;;;;;5079686;28;61957;-81
2022/11/09 13:45:45;;;;;;;;;1.00;0.00;;;;;;;;5078266;28;61922;-80
2022/11/09 13:48:23;;;;;;;;;0.00;0.00;;;;;;;;5082377;27;61835;-81
2022/11/09 13:50:52;;;;;;;;;0.00;0.00;;;;;;;;5081842;27;61972;-86
2022/11/09 13:53:35;;;;;;;;;0.67;0.67;;;;;;;;5081570;27;62869;-83
2022/11/09 13:56:39;;;;;;;;;0.00;0.00;;;;;;;;5076913;28;61981;-84
2022/11/09 13:59:11;;;;;;;;;1.67;0.33;;;;;;;;5083077;27;63026;-81
2022/11/09 14:01:52;;;;;;;;;1.00;1.00;;;;;;;;5100542;27;61803;-81
2022/11/09 14:04:37;;;;;;;;;1.33;0.00;;;;;;;;5081921;27;62789;-81
2022/11/09 14:07:04;;;;;;;;;0.00;0.00;;;;;;;;5101833;27;61756;-80
2022/11/09 14:09:55;;;;;;;;;0.00;0.00;;;;;;;;5102970;27;62032;-80
2022/11/09 14:12:27;;;;;;;;;2.00;1.00;;;;;;;;5098051;27;62350;-79
2022/11/09 14:14:55;;;;;;;;;1.67;0.00;;;;;;;;5101655;27;62104;-80
2022/11/09 14:17:32;;;;;;;;;1.00;1.00;;;;;;;;5101228;27;62019;-80
2022/11/09 14:20:10;;;;;;;;;0.00;0.00;;;;;;;;5081456;27;61932;-80
2022/11/09 14:22:35;;;;;;;;;0.33;0.33;;;;;;;;5074344;27;61968;-81
2022/11/09 14:25:12;;;;;;;;;0.00;0.00;;;;;;;;5102300;27;61912;-80
2022/11/09 14:27:44;;;;;;;;;1.00;1.00;;;;;;;;5083843;27;62093;-80
2022/11/09 14:30:18;;;;;;;;;0.00;0.00;;;;;;;;5083880;27;61930;-80
2022/11/09 14:32:47;;;;;;;;;1.00;0.00;;;;;;;;5100642;27;61728;-80
2022/11/09 14:35:29;;;;;;;;;2.00;2.00;;;;;;;;5102579;27;61764;-78
2022/11/09 14:37:56;;;;;;;;;1.00;0.00;;;;;;;;5079831;27;62214;-80
2022/11/09 14:40:24;;;;;;;;;0.33;0.33;;;;;;;;5083127;27;62108;-79
2022/11/09 14:42:54;;;;;;;;;0.00;0.00;;;;;;;;5101699;27;61822;-79
2022/11/09 14:45:20;;;;;;;;;0.00;0.00;;;;;;;;5098903;27;61760;-79
2022/11/09 14:47:47;;;;;;;;;1.00;0.00;;;;;;;;5083193;27;61815;-80
2022/11/09 14:50:17;;;;;;;;;2.00;1.00;;;;;;;;5101531;27;61812;-80
2022/11/09 14:52:43;;;;;;;;;0.33;0.33;;;;;;;;5084804;27;62039;-80